< Typhoon 199406 1994 Season Typhoon 199408 >
Typhoon 199407 (WALT)
General InformationTrack Information on Google MapsDetailed Wind InformationList of All Images || NewsDisaster Info.ResourceGoogle EarthGE AnimationAtom FeedGeoJSON
Detalied Best Track (Time Zone = UTC)
Year Month Day Hour Lat. Long. Pressure (hPa) Wind (kt) Class Image Chart
1994 7 14 00 11.0 129.0 1004 0 2 Image Chart
1994 7 14 06 11.5 128.0 1004 0 2 Image Chart
1994 7 14 12 12.5 127.0 1004 0 2 Image Chart
1994 7 14 18 13.3 126.5 1004 0 2 Image Chart
1994 7 15 00 14.0 126.0 1004 0 2 Image Chart
1994 7 15 06 14.5 125.5 1004 0 2 Image Chart
1994 7 15 12 14.8 125.0 1004 0 2 Image Chart
1994 7 15 18 14.9 124.5 1002 0 2 Image Chart
1994 7 16 00 15.1 124.5 1004 0 2 Image Chart
1994 7 16 06 15.3 125.0 1002 0 2 Image Chart
1994 7 16 12 15.3 125.2 1000 35 3 Image Chart
1994 7 16 18 15.3 125.5 996 35 3 Image Chart
1994 7 17 00 15.5 126.9 990 45 3 Image Chart
1994 7 17 06 16.2 128.0 985 50 4 Image Chart
1994 7 17 12 16.6 128.8 980 55 4 Image Chart
1994 7 17 18 17.1 129.6 975 60 4 Image Chart
1994 7 18 00 17.7 130.1 970 65 5 Image Chart
1994 7 18 06 18.7 131.0 960 70 5 Image Chart
1994 7 18 12 19.6 131.3 955 75 5 Image Chart
1994 7 18 18 20.1 131.7 950 80 5 Image Chart
1994 7 19 00 21.0 132.4 940 85 5 Image Chart
1994 7 19 06 21.8 133.1 930 90 5 Image Chart
1994 7 19 12 22.5 133.8 925 95 5 Image Chart
1994 7 19 18 23.2 134.5 915 100 5 Image Chart
1994 7 20 00 23.9 135.5 915 100 5 Image Chart
1994 7 20 06 24.8 136.5 915 100 5 Image Chart
1994 7 20 12 25.4 137.4 920 100 5 Image Chart
1994 7 20 18 26.3 138.0 930 95 5 Image Chart
1994 7 21 00 27.1 138.1 945 85 5 Image Chart
1994 7 21 06 27.8 138.1 955 75 5 Image Chart
1994 7 21 12 28.6 138.0 960 70 5 Image Chart
1994 7 21 18 29.3 137.6 965 70 5 Image Chart
1994 7 22 00 29.5 136.6 970 65 5 Image Chart
1994 7 22 03 29.6 136.0 970 65 5 Image Chart
1994 7 22 06 29.7 135.5 970 65 5 Image Chart
1994 7 22 09 29.7 135.0 970 65 5 Image Chart
1994 7 22 12 29.7 134.5 970 65 5 Image Chart
1994 7 22 15 29.7 134.0 970 65 5 Image Chart
1994 7 22 18 29.7 133.6 975 60 4 Image Chart
1994 7 22 21 29.7 133.7 975 60 4 Image Chart
1994 7 23 00 29.7 132.9 975 60 4 Image Chart
1994 7 23 03 29.7 132.7 975 60 4 Image Chart
1994 7 23 06 29.8 132.5 975 60 4 Image Chart
1994 7 23 09 29.9 132.4 975 60 4 Image Chart
1994 7 23 12 30.0 132.3 980 55 4 Image Chart
1994 7 23 15 30.1 132.3 980 55 4 Image Chart
1994 7 23 18 30.3 132.4 980 55 4 Image Chart
1994 7 23 21 30.5 132.5 980 55 4 Image Chart
1994 7 24 00 30.6 132.6 980 55 4 Image Chart
1994 7 24 03 30.7 132.6 980 55 4 Image Chart
1994 7 24 06 30.9 132.7 980 55 4 Image Chart
1994 7 24 09 31.0 132.8 980 55 4 Image Chart
1994 7 24 12 31.1 132.8 980 55 4 Image Chart
1994 7 24 15 31.3 132.9 980 55 4 Image Chart
1994 7 24 18 31.5 133.0 980 55 4 Image Chart
1994 7 24 21 31.8 133.1 980 55 4 Image Chart
1994 7 25 00 32.1 133.1 980 55 4 Image Chart
1994 7 25 03 32.4 133.0 985 50 4 Image Chart
1994 7 25 04 32.6 132.8 985 50 4 Image Chart
1994 7 25 06 33.0 132.7 985 45 3 Image Chart
1994 7 25 09 33.4 132.2 990 45 3 Image Chart
1994 7 25 12 33.7 131.7 992 40 3 Image Chart
1994 7 25 15 33.9 130.9 994 35 3 Image Chart
1994 7 25 18 34.0 130.4 994 35 3 Image Chart
1994 7 25 21 34.0 130.2 996 0 2 Image Chart
1994 7 26 00 34.0 130.0 998 0 2 Image Chart
1994 7 26 06 34.0 130.0 998 0 2 Image Chart
1994 7 26 12 34.0 130.0 998 0 2 Image Chart
1994 7 26 18 34.0 130.0 998 0 2 Image Chart
1994 7 27 00 33.9 129.0 1000 0 2 Image Chart
1994 7 27 06 33.8 128.0 1000 0 2 Image Chart
1994 7 27 12 33.7 127.5 1000 0 2 Image Chart
1994 7 27 18 33.6 127.0 1000 0 2 Image Chart
1994 7 28 00 33.5 127.0 1000 0 2 Image Chart
1994 7 28 06 33.5 127.0 1000 0 2 Image Chart
1994 7 28 12 33.5 127.0 1000 0 2 Image Chart
Japan Meteorological Agency Best Track Data | Correction Date : 1995-01-30
< Typhoon 199406 1994 Season Typhoon 199408 >

Help